sensor_id;sensor_type;location;lat;lon;timestamp;P1;durP1;ratioP1;P2;durP2;ratioP2
68256;SDS011;55069;51.568;4.656;2023-12-22T00:00:17;15.77;;;1.90;;
68256;SDS011;55069;51.568;4.656;2023-12-22T00:02:42;14.00;;;2.50;;
68256;SDS011;55069;51.568;4.656;2023-12-22T00:05:08;18.70;;;3.13;;
68256;SDS011;55069;51.568;4.656;2023-12-22T00:07:34;22.50;;;2.30;;
68256;SDS011;55069;51.568;4.656;2023-12-22T00:09:59;8.47;;;1.67;;
68256;SDS011;55069;51.568;4.656;2023-12-22T00:12:24;10.70;;;1.00;;
68256;SDS011;55069;51.568;4.656;2023-12-22T00:14:50;13.67;;;1.50;;
68256;SDS011;55069;51.568;4.656;2023-12-22T00:17:15;12.65;;;1.67;;
68256;SDS011;55069;51.568;4.656;2023-12-22T00:19:41;15.97;;;2.13;;
68256;SDS011;55069;51.568;4.656;2023-12-22T00:22:06;15.50;;;2.53;;
68256;SDS011;55069;51.568;4.656;2023-12-22T00:24:32;12.10;;;2.77;;
68256;SDS011;55069;51.568;4.656;2023-12-22T00:26:57;18.80;;;2.30;;
68256;SDS011;55069;51.568;4.656;2023-12-22T00:29:23;9.02;;;1.27;;
68256;SDS011;55069;51.568;4.656;2023-12-22T00:31:48;15.90;;;2.37;;
68256;SDS011;55069;51.568;4.656;2023-12-22T00:34:14;16.23;;;2.00;;
68256;SDS011;55069;51.568;4.656;2023-12-22T00:36:39;18.50;;;2.60;;
68256;SDS011;55069;51.568;4.656;2023-12-22T00:39:05;10.43;;;1.58;;
68256;SDS011;55069;51.568;4.656;2023-12-22T00:41:30;15.90;;;1.90;;
68256;SDS011;55069;51.568;4.656;2023-12-22T00:43:55;11.97;;;0.97;;
68256;SDS011;55069;51.568;4.656;2023-12-22T00:46:21;20.93;;;2.70;;
68256;SDS011;55069;51.568;4.656;2023-12-22T00:48:46;9.20;;;1.47;;
68256;SDS011;55069;51.568;4.656;2023-12-22T00:51:12;13.60;;;1.85;;
68256;SDS011;55069;51.568;4.656;2023-12-22T00:53:37;16.73;;;2.17;;
68256;SDS011;55069;51.568;4.656;2023-12-22T00:56:03;8.03;;;1.50;;
68256;SDS011;55069;51.568;4.656;2023-12-22T00:58:29;13.60;;;1.53;;
68256;SDS011;55069;51.568;4.656;2023-12-22T01:00:55;11.05;;;2.08;;
68256;SDS011;55069;51.568;4.656;2023-12-22T01:03:20;13.32;;;1.75;;
68256;SDS011;55069;51.568;4.656;2023-12-22T01:05:46;10.13;;;1.60;;
68256;SDS011;55069;51.568;4.656;2023-12-22T01:08:11;12.47;;;1.77;;
68256;SDS011;55069;51.568;4.656;2023-12-22T01:10:37;19.30;;;2.60;;
68256;SDS011;55069;51.568;4.656;2023-12-22T01:13:02;13.32;;;1.67;;
68256;SDS011;55069;51.568;4.656;2023-12-22T01:15:28;16.67;;;2.23;;
68256;SDS011;55069;51.568;4.656;2023-12-22T01:17:54;17.43;;;2.00;;
68256;SDS011;55069;51.568;4.656;2023-12-22T01:20:19;22.75;;;2.60;;
68256;SDS011;55069;51.568;4.656;2023-12-22T01:22:45;14.27;;;1.63;;
68256;SDS011;55069;51.568;4.656;2023-12-22T01:25:10;12.27;;;1.83;;
68256;SDS011;55069;51.568;4.656;2023-12-22T01:27:35;12.80;;;1.77;;
68256;SDS011;55069;51.568;4.656;2023-12-22T01:30:01;14.93;;;1.70;;
68256;SDS011;55069;51.568;4.656;2023-12-22T01:32:26;12.15;;;1.88;;
68256;SDS011;55069;51.568;4.656;2023-12-22T01:34:58;22.30;;;2.03;;
68256;SDS011;55069;51.568;4.656;2023-12-22T01:37:25;13.37;;;1.50;;
68256;SDS011;55069;51.568;4.656;2023-12-22T01:39:50;17.98;;;1.75;;
68256;SDS011;55069;51.568;4.656;2023-12-22T01:42:16;12.57;;;1.67;;
68256;SDS011;55069;51.568;4.656;2023-12-22T01:44:41;10.83;;;1.60;;
68256;SDS011;55069;51.568;4.656;2023-12-22T01:47:07;17.50;;;1.70;;
68256;SDS011;55069;51.568;4.656;2023-12-22T01:49:32;14.27;;;1.83;;
68256;SDS011;55069;51.568;4.656;2023-12-22T01:51:58;11.05;;;0.98;;
68256;SDS011;55069;51.568;4.656;2023-12-22T01:54:24;16.77;;;2.57;;
68256;SDS011;55069;51.568;4.656;2023-12-22T01:56:50;16.02;;;1.90;;
68256;SDS011;55069;51.568;4.656;2023-12-22T01:59:16;16.25;;;2.03;;
68256;SDS011;55069;51.568;4.656;2023-12-22T02:01:41;13.90;;;1.63;;
68256;SDS011;55069;51.568;4.656;2023-12-22T02:04:10;11.38;;;1.88;;
68256;SDS011;55069;51.568;4.656;2023-12-22T02:06:36;19.23;;;1.90;;
68256;SDS011;55069;51.568;4.656;2023-12-22T02:09:02;12.95;;;1.88;;
68256;SDS011;55069;51.568;4.656;2023-12-22T02:11:29;22.77;;;2.72;;
68256;SDS011;55069;51.568;4.656;2023-12-22T02:13:54;23.47;;;3.00;;
68256;SDS011;55069;51.568;4.656;2023-12-22T02:16:22;16.77;;;2.63;;
68256;SDS011;55069;51.568;4.656;2023-12-22T02:18:56;14.32;;;1.70;;
68256;SDS011;55069;51.568;4.656;2023-12-22T02:21:29;17.90;;;2.72;;
68256;SDS011;55069;51.568;4.656;2023-12-22T02:23:54;22.53;;;2.57;;
68256;SDS011;55069;51.568;4.656;2023-12-22T02:26:25;23.10;;;2.00;;
68256;SDS011;55069;51.568;4.656;2023-12-22T02:28:58;14.67;;;2.07;;
68256;SDS011;55069;51.568;4.656;2023-12-22T02:31:39;17.10;;;1.92;;
68256;SDS011;55069;51.568;4.656;2023-12-22T02:34:12;17.80;;;1.70;;
68256;SDS011;55069;51.568;4.656;2023-12-22T02:36:42;25.85;;;2.00;;
68256;SDS011;55069;51.568;4.656;2023-12-22T02:39:09;14.65;;;2.00;;
68256;SDS011;55069;51.568;4.656;2023-12-22T02:41:35;11.33;;;1.33;;
68256;SDS011;55069;51.568;4.656;2023-12-22T02:44:01;10.82;;;1.35;;
68256;SDS011;55069;51.568;4.656;2023-12-22T02:46:27;7.53;;;1.30;;
68256;SDS011;55069;51.568;4.656;2023-12-22T02:48:52;19.38;;;2.30;;
68256;SDS011;55069;51.568;4.656;2023-12-22T02:51:18;18.40;;;2.07;;
68256;SDS011;55069;51.568;4.656;2023-12-22T02:53:43;14.97;;;1.70;;
68256;SDS011;55069;51.568;4.656;2023-12-22T02:56:09;19.00;;;2.27;;
68256;SDS011;55069;51.568;4.656;2023-12-22T02:58:34;16.35;;;1.50;;
68256;SDS011;55069;51.568;4.656;2023-12-22T03:01:00;15.02;;;1.83;;
68256;SDS011;55069;51.568;4.656;2023-12-22T03:03:25;12.20;;;1.90;;
68256;SDS011;55069;51.568;4.656;2023-12-22T03:05:51;15.90;;;2.00;;
68256;SDS011;55069;51.568;4.656;2023-12-22T03:08:16;23.37;;;2.73;;
68256;SDS011;55069;51.568;4.656;2023-12-22T03:10:41;13.67;;;2.40;;
68256;SDS011;55069;51.568;4.656;2023-12-22T03:13:07;16.27;;;1.88;;
68256;SDS011;55069;51.568;4.656;2023-12-22T03:15:32;10.80;;;1.77;;
68256;SDS011;55069;51.568;4.656;2023-12-22T03:17:58;17.03;;;2.37;;
68256;SDS011;55069;51.568;4.656;2023-12-22T03:20:23;12.03;;;1.40;;
68256;SDS011;55069;51.568;4.656;2023-12-22T03:22:49;14.15;;;2.03;;
68256;SDS011;55069;51.568;4.656;2023-12-22T03:25:14;13.17;;;2.30;;
68256;SDS011;55069;51.568;4.656;2023-12-22T03:27:40;16.77;;;2.20;;
68256;SDS011;55069;51.568;4.656;2023-12-22T03:30:05;14.13;;;2.17;;
68256;SDS011;55069;51.568;4.656;2023-12-22T03:32:31;15.32;;;2.00;;
68256;SDS011;55069;51.568;4.656;2023-12-22T03:34:57;15.27;;;2.73;;
68256;SDS011;55069;51.568;4.656;2023-12-22T03:37:22;18.83;;;2.55;;
68256;SDS011;55069;51.568;4.656;2023-12-22T03:39:48;20.40;;;2.93;;
68256;SDS011;55069;51.568;4.656;2023-12-22T03:42:13;21.57;;;2.50;;
68256;SDS011;55069;51.568;4.656;2023-12-22T03:44:39;21.47;;;2.60;;
68256;SDS011;55069;51.568;4.656;2023-12-22T03:47:04;16.27;;;2.08;;
68256;SDS011;55069;51.568;4.656;2023-12-22T03:49:30;13.87;;;1.70;;
68256;SDS011;55069;51.568;4.656;2023-12-22T03:51:55;21.27;;;2.23;;
68256;SDS011;55069;51.568;4.656;2023-12-22T03:54:21;21.27;;;2.93;;
68256;SDS011;55069;51.568;4.656;2023-12-22T03:56:46;21.30;;;2.30;;
68256;SDS011;55069;51.568;4.656;2023-12-22T03:59:11;17.90;;;2.53;;
68256;SDS011;55069;51.568;4.656;2023-12-22T04:01:38;18.13;;;2.90;;
68256;SDS011;55069;51.568;4.656;2023-12-22T04:04:03;18.23;;;2.78;;
68256;SDS011;55069;51.568;4.656;2023-12-22T04:06:29;18.13;;;2.17;;
68256;SDS011;55069;51.568;4.656;2023-12-22T04:08:55;17.87;;;2.40;;
68256;SDS011;55069;51.568;4.656;2023-12-22T04:11:20;17.95;;;2.03;;
68256;SDS011;55069;51.568;4.656;2023-12-22T04:13:46;19.43;;;2.53;;
68256;SDS011;55069;51.568;4.656;2023-12-22T04:16:11;15.67;;;2.17;;
68256;SDS011;55069;51.568;4.656;2023-12-22T04:18:37;24.27;;;3.47;;
68256;SDS011;55069;51.568;4.656;2023-12-22T04:21:02;17.37;;;3.03;;
68256;SDS011;55069;51.568;4.656;2023-12-22T04:23:28;23.23;;;3.20;;
68256;SDS011;55069;51.568;4.656;2023-12-22T04:25:53;36.67;;;5.23;;
68256;SDS011;55069;51.568;4.656;2023-12-22T04:28:19;27.30;;;3.20;;
68256;SDS011;55069;51.568;4.656;2023-12-22T04:30:45;24.93;;;3.33;;
68256;SDS011;55069;51.568;4.656;2023-12-22T04:33:10;30.42;;;3.55;;
68256;SDS011;55069;51.568;4.656;2023-12-22T04:35:36;27.83;;;3.53;;
68256;SDS011;55069;51.568;4.656;2023-12-22T04:38:01;27.30;;;3.57;;
68256;SDS011;55069;51.568;4.656;2023-12-22T04:40:27;23.65;;;3.45;;
68256;SDS011;55069;51.568;4.656;2023-12-22T04:42:53;31.33;;;4.63;;
68256;SDS011;55069;51.568;4.656;2023-12-22T04:45:18;23.63;;;3.55;;
68256;SDS011;55069;51.568;4.656;2023-12-22T04:47:44;27.60;;;3.83;;
68256;SDS011;55069;51.568;4.656;2023-12-22T04:50:09;21.90;;;4.20;;
68256;SDS011;55069;51.568;4.656;2023-12-22T04:52:35;31.73;;;4.20;;
68256;SDS011;55069;51.568;4.656;2023-12-22T04:55:00;23.47;;;4.27;;
68256;SDS011;55069;51.568;4.656;2023-12-22T04:57:26;26.60;;;3.27;;
68256;SDS011;55069;51.568;4.656;2023-12-22T04:59:51;48.80;;;3.70;;
68256;SDS011;55069;51.568;4.656;2023-12-22T05:02:17;18.95;;;3.13;;
68256;SDS011;55069;51.568;4.656;2023-12-22T05:04:42;23.97;;;3.43;;
68256;SDS011;55069;51.568;4.656;2023-12-22T05:07:08;24.90;;;3.20;;
68256;SDS011;55069;51.568;4.656;2023-12-22T05:09:35;18.10;;;2.58;;
68256;SDS011;55069;51.568;4.656;2023-12-22T05:12:01;26.45;;;4.25;;
68256;SDS011;55069;51.568;4.656;2023-12-22T05:14:27;23.38;;;2.85;;
68256;SDS011;55069;51.568;4.656;2023-12-22T05:16:53;26.23;;;3.83;;
68256;SDS011;55069;51.568;4.656;2023-12-22T05:19:21;24.73;;;2.95;;
68256;SDS011;55069;51.568;4.656;2023-12-22T05:21:46;27.33;;;4.03;;
68256;SDS011;55069;51.568;4.656;2023-12-22T05:24:12;27.53;;;3.50;;
68256;SDS011;55069;51.568;4.656;2023-12-22T05:26:37;35.35;;;4.00;;
68256;SDS011;55069;51.568;4.656;2023-12-22T05:29:03;31.37;;;4.00;;
68256;SDS011;55069;51.568;4.656;2023-12-22T05:31:28;29.30;;;3.40;;
68256;SDS011;55069;51.568;4.656;2023-12-22T05:33:56;21.98;;;3.70;;
68256;SDS011;55069;51.568;4.656;2023-12-22T05:36:21;29.53;;;4.00;;
68256;SDS011;55069;51.568;4.656;2023-12-22T05:38:47;21.10;;;3.83;;
68256;SDS011;55069;51.568;4.656;2023-12-22T05:41:13;28.93;;;4.47;;
68256;SDS011;55069;51.568;4.656;2023-12-22T05:43:38;34.38;;;5.03;;
68256;SDS011;55069;51.568;4.656;2023-12-22T05:46:04;27.73;;;4.23;;
68256;SDS011;55069;51.568;4.656;2023-12-22T05:48:29;27.23;;;3.90;;
68256;SDS011;55069;51.568;4.656;2023-12-22T05:50:57;36.57;;;4.10;;
68256;SDS011;55069;51.568;4.656;2023-12-22T05:53:23;32.10;;;4.55;;
68256;SDS011;55069;51.568;4.656;2023-12-22T05:55:48;33.70;;;4.70;;
68256;SDS011;55069;51.568;4.656;2023-12-22T05:58:14;31.08;;;3.85;;
68256;SDS011;55069;51.568;4.656;2023-12-22T06:00:40;33.37;;;4.83;;
68256;SDS011;55069;51.568;4.656;2023-12-22T06:03:05;39.83;;;4.83;;
68256;SDS011;55069;51.568;4.656;2023-12-22T06:05:31;32.20;;;5.18;;
68256;SDS011;55069;51.568;4.656;2023-12-22T06:07:56;41.80;;;6.10;;
68256;SDS011;55069;51.568;4.656;2023-12-22T06:10:21;36.40;;;5.30;;
68256;SDS011;55069;51.568;4.656;2023-12-22T06:12:47;30.47;;;3.83;;
68256;SDS011;55069;51.568;4.656;2023-12-22T06:15:12;22.63;;;4.37;;
68256;SDS011;55069;51.568;4.656;2023-12-22T06:17:38;33.53;;;4.20;;
68256;SDS011;55069;51.568;4.656;2023-12-22T06:20:04;30.13;;;4.20;;
68256;SDS011;55069;51.568;4.656;2023-12-22T06:22:29;24.83;;;3.92;;
68256;SDS011;55069;51.568;4.656;2023-12-22T06:24:55;32.00;;;3.40;;
68256;SDS011;55069;51.568;4.656;2023-12-22T06:27:20;26.57;;;4.30;;
68256;SDS011;55069;51.568;4.656;2023-12-22T06:29:46;43.50;;;4.50;;
68256;SDS011;55069;51.568;4.656;2023-12-22T06:32:11;28.57;;;4.17;;
68256;SDS011;55069;51.568;4.656;2023-12-22T06:34:37;26.88;;;4.57;;
68256;SDS011;55069;51.568;4.656;2023-12-22T06:37:02;32.80;;;3.50;;
68256;SDS011;55069;51.568;4.656;2023-12-22T06:39:28;28.35;;;4.50;;
68256;SDS011;55069;51.568;4.656;2023-12-22T06:41:54;31.67;;;3.90;;
68256;SDS011;55069;51.568;4.656;2023-12-22T06:44:19;26.93;;;4.13;;
68256;SDS011;55069;51.568;4.656;2023-12-22T06:46:45;23.65;;;3.03;;
68256;SDS011;55069;51.568;4.656;2023-12-22T06:49:10;25.70;;;4.40;;
68256;SDS011;55069;51.568;4.656;2023-12-22T06:51:36;33.17;;;3.97;;
68256;SDS011;55069;51.568;4.656;2023-12-22T06:54:02;26.17;;;3.47;;
68256;SDS011;55069;51.568;4.656;2023-12-22T06:56:30;27.37;;;3.60;;
68256;SDS011;55069;51.568;4.656;2023-12-22T06:58:59;28.60;;;3.42;;
68256;SDS011;55069;51.568;4.656;2023-12-22T07:01:25;24.05;;;3.75;;
68256;SDS011;55069;51.568;4.656;2023-12-22T07:03:51;31.90;;;5.15;;
68256;SDS011;55069;51.568;4.656;2023-12-22T07:06:17;31.08;;;3.95;;
68256;SDS011;55069;51.568;4.656;2023-12-22T07:11:51;24.20;;;4.33;;
68256;SDS011;55069;51.568;4.656;2023-12-22T07:14:18;24.48;;;3.78;;
68256;SDS011;55069;51.568;4.656;2023-12-22T07:16:43;27.13;;;3.63;;
68256;SDS011;55069;51.568;4.656;2023-12-22T07:19:09;26.17;;;4.07;;
68256;SDS011;55069;51.568;4.656;2023-12-22T07:21:38;28.60;;;3.95;;
68256;SDS011;55069;51.568;4.656;2023-12-22T07:24:04;33.67;;;4.75;;
68256;SDS011;55069;51.568;4.656;2023-12-22T07:26:30;31.60;;;4.33;;
68256;SDS011;55069;51.568;4.656;2023-12-22T07:28:56;26.35;;;4.88;;
68256;SDS011;55069;51.568;4.656;2023-12-22T07:31:21;20.63;;;4.20;;
68256;SDS011;55069;51.568;4.656;2023-12-22T07:33:47;17.85;;;2.63;;
68256;SDS011;55069;51.568;4.656;2023-12-22T07:36:13;26.07;;;3.57;;
68256;SDS011;55069;51.568;4.656;2023-12-22T07:38:39;21.73;;;3.65;;
68256;SDS011;55069;51.568;4.656;2023-12-22T07:41:04;18.87;;;2.87;;
68256;SDS011;55069;51.568;4.656;2023-12-22T07:43:30;25.60;;;3.22;;
68256;SDS011;55069;51.568;4.656;2023-12-22T07:45:56;22.03;;;3.77;;
68256;SDS011;55069;51.568;4.656;2023-12-22T07:48:21;43.75;;;4.55;;
68256;SDS011;55069;51.568;4.656;2023-12-22T07:50:47;27.50;;;4.17;;
68256;SDS011;55069;51.568;4.656;2023-12-22T07:53:12;31.90;;;4.93;;
68256;SDS011;55069;51.568;4.656;2023-12-22T07:55:38;20.67;;;3.33;;
68256;SDS011;55069;51.568;4.656;2023-12-22T07:58:07;27.38;;;3.50;;
68256;SDS011;55069;51.568;4.656;2023-12-22T08:00:32;22.43;;;4.13;;
68256;SDS011;55069;51.568;4.656;2023-12-22T08:02:58;20.67;;;3.00;;
68256;SDS011;55069;51.568;4.656;2023-12-22T08:05:24;15.82;;;2.30;;
68256;SDS011;55069;51.568;4.656;2023-12-22T08:07:50;23.10;;;3.72;;
68256;SDS011;55069;51.568;4.656;2023-12-22T08:10:15;20.80;;;3.87;;
68256;SDS011;55069;51.568;4.656;2023-12-22T08:12:41;26.40;;;3.88;;
68256;SDS011;55069;51.568;4.656;2023-12-22T08:15:07;22.47;;;3.60;;
68256;SDS011;55069;51.568;4.656;2023-12-22T08:17:35;24.98;;;4.72;;
68256;SDS011;55069;51.568;4.656;2023-12-22T08:20:01;26.05;;;3.65;;
68256;SDS011;55069;51.568;4.656;2023-12-22T08:22:27;23.20;;;3.58;;
68256;SDS011;55069;51.568;4.656;2023-12-22T08:24:53;15.37;;;1.40;;
68256;SDS011;55069;51.568;4.656;2023-12-22T08:27:18;17.40;;;2.33;;
68256;SDS011;55069;51.568;4.656;2023-12-22T08:29:44;17.93;;;2.87;;
68256;SDS011;55069;51.568;4.656;2023-12-22T08:32:09;19.60;;;2.88;;
68256;SDS011;55069;51.568;4.656;2023-12-22T08:34:35;16.23;;;2.30;;
68256;SDS011;55069;51.568;4.656;2023-12-22T08:37:00;13.90;;;2.97;;
68256;SDS011;55069;51.568;4.656;2023-12-22T08:39:26;22.13;;;2.73;;
68256;SDS011;55069;51.568;4.656;2023-12-22T08:41:51;12.15;;;1.45;;
68256;SDS011;55069;51.568;4.656;2023-12-22T08:44:17;19.43;;;2.03;;
68256;SDS011;55069;51.568;4.656;2023-12-22T08:46:42;24.07;;;2.77;;
68256;SDS011;55069;51.568;4.656;2023-12-22T08:49:08;12.35;;;2.75;;
68256;SDS011;55069;51.568;4.656;2023-12-22T08:51:33;7.27;;;1.90;;
68256;SDS011;55069;51.568;4.656;2023-12-22T08:53:59;13.23;;;2.27;;
68256;SDS011;55069;51.568;4.656;2023-12-22T08:56:25;5.88;;;1.13;;
68256;SDS011;55069;51.568;4.656;2023-12-22T08:58:51;9.50;;;1.73;;
68256;SDS011;55069;51.568;4.656;2023-12-22T09:01:19;9.20;;;1.08;;
68256;SDS011;55069;51.568;4.656;2023-12-22T09:03:45;11.52;;;0.88;;
68256;SDS011;55069;51.568;4.656;2023-12-22T09:06:15;8.70;;;1.13;;
68256;SDS011;55069;51.568;4.656;2023-12-22T09:08:41;11.90;;;1.50;;
68256;SDS011;55069;51.568;4.656;2023-12-22T09:11:07;12.82;;;1.17;;
68256;SDS011;55069;51.568;4.656;2023-12-22T09:13:33;14.38;;;1.52;;
68256;SDS011;55069;51.568;4.656;2023-12-22T09:16:01;20.40;;;1.73;;
68256;SDS011;55069;51.568;4.656;2023-12-22T09:18:27;13.33;;;1.33;;
68256;SDS011;55069;51.568;4.656;2023-12-22T09:20:53;11.73;;;1.27;;
68256;SDS011;55069;51.568;4.656;2023-12-22T09:23:18;11.47;;;1.53;;
68256;SDS011;55069;51.568;4.656;2023-12-22T09:25:45;25.10;;;2.55;;
68256;SDS011;55069;51.568;4.656;2023-12-22T09:28:10;17.17;;;1.93;;
68256;SDS011;55069;51.568;4.656;2023-12-22T09:30:36;8.40;;;1.10;;
68256;SDS011;55069;51.568;4.656;2023-12-22T09:33:01;6.83;;;1.07;;
68256;SDS011;55069;51.568;4.656;2023-12-22T09:35:27;11.23;;;1.40;;
68256;SDS011;55069;51.568;4.656;2023-12-22T09:37:53;7.30;;;1.10;;
68256;SDS011;55069;51.568;4.656;2023-12-22T09:40:19;9.85;;;1.23;;
68256;SDS011;55069;51.568;4.656;2023-12-22T09:42:47;9.53;;;1.00;;
68256;SDS011;55069;51.568;4.656;2023-12-22T09:45:13;9.98;;;1.15;;
68256;SDS011;55069;51.568;4.656;2023-12-22T09:47:43;13.63;;;1.90;;
68256;SDS011;55069;51.568;4.656;2023-12-22T09:50:10;9.98;;;1.55;;
68256;SDS011;55069;51.568;4.656;2023-12-22T09:52:36;7.30;;;1.30;;
68256;SDS011;55069;51.568;4.656;2023-12-22T09:55:05;15.97;;;1.30;;
68256;SDS011;55069;51.568;4.656;2023-12-22T09:57:32;7.50;;;1.02;;
68256;SDS011;55069;51.568;4.656;2023-12-22T09:59:59;7.72;;;0.90;;
68256;SDS011;55069;51.568;4.656;2023-12-22T10:02:26;16.50;;;1.92;;
68256;SDS011;55069;51.568;4.656;2023-12-22T10:04:54;10.27;;;1.58;;
68256;SDS011;55069;51.568;4.656;2023-12-22T10:07:20;10.93;;;1.17;;
68256;SDS011;55069;51.568;4.656;2023-12-22T10:09:47;10.15;;;1.88;;
68256;SDS011;55069;51.568;4.656;2023-12-22T10:12:13;10.40;;;1.10;;
68256;SDS011;55069;51.568;4.656;2023-12-22T10:14:40;8.43;;;1.20;;
68256;SDS011;55069;51.568;4.656;2023-12-22T10:17:06;10.30;;;1.20;;
68256;SDS011;55069;51.568;4.656;2023-12-22T10:19:32;6.18;;;1.15;;
68256;SDS011;55069;51.568;4.656;2023-12-22T10:21:57;9.27;;;1.67;;
68256;SDS011;55069;51.568;4.656;2023-12-22T10:24:42;10.03;;;0.97;;
68256;SDS011;55069;51.568;4.656;2023-12-22T10:27:09;9.15;;;0.88;;
68256;SDS011;55069;51.568;4.656;2023-12-22T10:29:37;7.05;;;1.45;;
68256;SDS011;55069;51.568;4.656;2023-12-22T10:32:03;13.43;;;2.20;;
68256;SDS011;55069;51.568;4.656;2023-12-22T10:34:30;15.75;;;1.35;;
68256;SDS011;55069;51.568;4.656;2023-12-22T10:36:56;5.57;;;0.77;;
68256;SDS011;55069;51.568;4.656;2023-12-22T10:39:22;11.43;;;0.85;;
68256;SDS011;55069;51.568;4.656;2023-12-22T10:41:48;7.22;;;1.20;;
68256;SDS011;55069;51.568;4.656;2023-12-22T10:44:16;12.73;;;2.30;;
68256;SDS011;55069;51.568;4.656;2023-12-22T10:46:46;10.80;;;0.90;;
68256;SDS011;55069;51.568;4.656;2023-12-22T10:49:12;13.65;;;2.25;;
68256;SDS011;55069;51.568;4.656;2023-12-22T10:51:37;9.90;;;1.10;;
68256;SDS011;55069;51.568;4.656;2023-12-22T10:54:04;11.57;;;1.40;;
68256;SDS011;55069;51.568;4.656;2023-12-22T10:56:31;12.50;;;1.83;;
68256;SDS011;55069;51.568;4.656;2023-12-22T10:58:56;8.30;;;1.30;;
68256;SDS011;55069;51.568;4.656;2023-12-22T11:01:23;8.55;;;1.15;;
68256;SDS011;55069;51.568;4.656;2023-12-22T11:03:56;15.70;;;1.33;;
68256;SDS011;55069;51.568;4.656;2023-12-22T11:06:23;11.63;;;1.35;;
68256;SDS011;55069;51.568;4.656;2023-12-22T11:08:52;11.25;;;1.02;;
68256;SDS011;55069;51.568;4.656;2023-12-22T11:11:26;10.32;;;2.45;;
68256;SDS011;55069;51.568;4.656;2023-12-22T11:13:56;14.27;;;1.70;;
68256;SDS011;55069;51.568;4.656;2023-12-22T11:16:23;15.73;;;1.10;;
68256;SDS011;55069;51.568;4.656;2023-12-22T11:18:49;8.90;;;1.33;;
68256;SDS011;55069;51.568;4.656;2023-12-22T11:21:17;9.68;;;1.40;;
68256;SDS011;55069;51.568;4.656;2023-12-22T11:23:44;13.63;;;1.33;;
68256;SDS011;55069;51.568;4.656;2023-12-22T11:26:10;9.00;;;0.82;;
68256;SDS011;55069;51.568;4.656;2023-12-22T11:28:37;11.20;;;1.00;;
68256;SDS011;55069;51.568;4.656;2023-12-22T11:31:06;12.15;;;1.20;;
68256;SDS011;55069;51.568;4.656;2023-12-22T11:33:35;13.02;;;1.48;;
68256;SDS011;55069;51.568;4.656;2023-12-22T11:36:03;8.70;;;0.85;;
68256;SDS011;55069;51.568;4.656;2023-12-22T11:38:30;8.98;;;1.08;;
68256;SDS011;55069;51.568;4.656;2023-12-22T11:40:56;5.10;;;0.83;;
68256;SDS011;55069;51.568;4.656;2023-12-22T11:43:23;10.32;;;1.20;;
68256;SDS011;55069;51.568;4.656;2023-12-22T11:45:49;5.35;;;1.10;;
68256;SDS011;55069;51.568;4.656;2023-12-22T11:48:15;12.85;;;1.30;;
68256;SDS011;55069;51.568;4.656;2023-12-22T11:50:41;8.10;;;1.27;;
68256;SDS011;55069;51.568;4.656;2023-12-22T11:53:20;12.43;;;1.10;;
68256;SDS011;55069;51.568;4.656;2023-12-22T12:01:21;10.47;;;1.30;;
68256;SDS011;55069;51.568;4.656;2023-12-22T12:03:59;7.22;;;1.10;;
68256;SDS011;55069;51.568;4.656;2023-12-22T12:09:00;9.05;;;0.73;;
68256;SDS011;55069;51.568;4.656;2023-12-22T12:14:33;7.27;;;1.00;;
68256;SDS011;55069;51.568;4.656;2023-12-22T12:17:06;7.65;;;0.85;;
68256;SDS011;55069;51.568;4.656;2023-12-22T12:19:39;10.63;;;1.55;;
68256;SDS011;55069;51.568;4.656;2023-12-22T12:22:07;13.88;;;1.55;;
68256;SDS011;55069;51.568;4.656;2023-12-22T12:24:32;12.33;;;1.63;;
68256;SDS011;55069;51.568;4.656;2023-12-22T12:26:58;10.68;;;1.50;;
68256;SDS011;55069;51.568;4.656;2023-12-22T12:29:24;5.83;;;1.27;;
68256;SDS011;55069;51.568;4.656;2023-12-22T12:31:49;12.00;;;1.88;;
68256;SDS011;55069;51.568;4.656;2023-12-22T12:34:16;7.57;;;1.10;;
68256;SDS011;55069;51.568;4.656;2023-12-22T12:36:45;10.13;;;1.07;;
68256;SDS011;55069;51.568;4.656;2023-12-22T12:39:14;23.00;;;1.20;;
68256;SDS011;55069;51.568;4.656;2023-12-22T12:41:40;13.55;;;1.13;;
68256;SDS011;55069;51.568;4.656;2023-12-22T12:44:08;8.02;;;1.20;;
68256;SDS011;55069;51.568;4.656;2023-12-22T12:46:36;9.48;;;1.42;;
68256;SDS011;55069;51.568;4.656;2023-12-22T12:49:03;14.00;;;2.00;;
68256;SDS011;55069;51.568;4.656;2023-12-22T12:51:37;12.93;;;1.60;;
68256;SDS011;55069;51.568;4.656;2023-12-22T12:54:03;12.35;;;1.02;;
68256;SDS011;55069;51.568;4.656;2023-12-22T12:56:28;7.53;;;1.45;;
68256;SDS011;55069;51.568;4.656;2023-12-22T12:58:54;9.90;;;1.13;;
68256;SDS011;55069;51.568;4.656;2023-12-22T13:01:20;18.37;;;1.40;;
68256;SDS011;55069;51.568;4.656;2023-12-22T13:03:54;10.70;;;1.25;;
68256;SDS011;55069;51.568;4.656;2023-12-22T13:06:21;8.10;;;1.20;;
68256;SDS011;55069;51.568;4.656;2023-12-22T13:08:53;7.93;;;1.50;;
68256;SDS011;55069;51.568;4.656;2023-12-22T13:11:22;12.82;;;1.50;;
68256;SDS011;55069;51.568;4.656;2023-12-22T13:13:49;9.98;;;1.65;;
68256;SDS011;55069;51.568;4.656;2023-12-22T13:16:19;8.38;;;1.52;;
68256;SDS011;55069;51.568;4.656;2023-12-22T13:18:51;6.23;;;1.27;;
68256;SDS011;55069;51.568;4.656;2023-12-22T13:21:17;16.88;;;1.45;;
68256;SDS011;55069;51.568;4.656;2023-12-22T13:23:43;12.43;;;1.13;;
68256;SDS011;55069;51.568;4.656;2023-12-22T13:26:21;14.63;;;1.50;;
68256;SDS011;55069;51.568;4.656;2023-12-22T13:28:46;11.45;;;1.25;;
68256;SDS011;55069;51.568;4.656;2023-12-22T13:31:12;11.73;;;1.50;;
68256;SDS011;55069;51.568;4.656;2023-12-22T13:33:42;9.88;;;1.63;;
68256;SDS011;55069;51.568;4.656;2023-12-22T13:36:07;9.60;;;1.75;;
68256;SDS011;55069;51.568;4.656;2023-12-22T13:38:33;9.03;;;1.20;;
68256;SDS011;55069;51.568;4.656;2023-12-22T13:41:02;8.77;;;1.42;;
68256;SDS011;55069;51.568;4.656;2023-12-22T13:43:31;10.98;;;1.33;;
68256;SDS011;55069;51.568;4.656;2023-12-22T13:45:56;12.48;;;1.50;;
68256;SDS011;55069;51.568;4.656;2023-12-22T13:48:22;15.43;;;2.13;;
68256;SDS011;55069;51.568;4.656;2023-12-22T13:50:55;10.13;;;0.88;;
68256;SDS011;55069;51.568;4.656;2023-12-22T13:53:25;11.23;;;1.23;;
68256;SDS011;55069;51.568;4.656;2023-12-22T13:55:54;16.30;;;2.37;;
68256;SDS011;55069;51.568;4.656;2023-12-22T13:58:28;15.95;;;1.55;;
68256;SDS011;55069;51.568;4.656;2023-12-22T14:00:54;10.53;;;1.20;;
68256;SDS011;55069;51.568;4.656;2023-12-22T14:03:19;10.98;;;1.20;;
68256;SDS011;55069;51.568;4.656;2023-12-22T14:05:48;15.83;;;1.83;;
68256;SDS011;55069;51.568;4.656;2023-12-22T14:08:14;8.35;;;1.33;;
68256;SDS011;55069;51.568;4.656;2023-12-22T14:10:46;18.75;;;1.88;;
68256;SDS011;55069;51.568;4.656;2023-12-22T14:13:13;11.90;;;2.08;;
68256;SDS011;55069;51.568;4.656;2023-12-22T14:15:39;11.88;;;1.40;;
68256;SDS011;55069;51.568;4.656;2023-12-22T14:18:04;11.83;;;2.00;;
68256;SDS011;55069;51.568;4.656;2023-12-22T14:20:30;9.37;;;1.60;;
68256;SDS011;55069;51.568;4.656;2023-12-22T14:22:55;14.73;;;1.93;;
68256;SDS011;55069;51.568;4.656;2023-12-22T14:25:21;11.77;;;1.58;;
68256;SDS011;55069;51.568;4.656;2023-12-22T14:27:46;9.73;;;1.10;;
68256;SDS011;55069;51.568;4.656;2023-12-22T14:30:12;21.80;;;1.97;;
68256;SDS011;55069;51.568;4.656;2023-12-22T14:32:38;15.00;;;1.40;;
68256;SDS011;55069;51.568;4.656;2023-12-22T14:35:04;10.38;;;1.42;;
68256;SDS011;55069;51.568;4.656;2023-12-22T14:37:30;10.63;;;1.90;;
68256;SDS011;55069;51.568;4.656;2023-12-22T14:39:55;8.05;;;1.35;;
68256;SDS011;55069;51.568;4.656;2023-12-22T14:42:21;13.23;;;1.60;;
68256;SDS011;55069;51.568;4.656;2023-12-22T14:44:46;12.77;;;1.37;;